Time;durP1;ratioP1;P1;durP2;ratioP2;P2;SDS_P1;SDS_P2;PMS_P1;PMS_P2;Temp;Humidity;BMP_temperature;BMP_pressure;BME280_temperature;BME280_humidity;BME280_pressure;Samples;Min_cycle;Max_cycle;Signal;HPM_P1;HPM_P2
2020/12/25 00:01:53;;;;;;;;;;;;;;;;;;5064230;28;19924;-65
2020/12/25 00:04:19;;;;;;;;;;;;;;;;;;5062677;28;19978;-65
2020/12/25 00:06:46;;;;;;;;;;;;;;;;;;5058848;28;19925;-64
2020/12/25 00:09:12;;;;;;;;;;;;;;;;;;5063300;28;19925;-65
2020/12/25 00:11:39;;;;;;;;;;;;;;;;;;5063361;28;20019;-64
2020/12/25 00:14:05;;;;;;;;;;;;;;;;;;5064303;28;20382;-64
2020/12/25 00:16:32;;;;;;;;;;;;;;;;;;5070344;28;20027;-64
2020/12/25 00:18:58;;;;;;;;;;;;;;;;;;5068695;28;19928;-66
2020/12/25 00:21:24;;;;;;;;;;;;;;;;;;5064049;28;19925;-65
2020/12/25 00:23:51;;;;;;;;;;;;;;;;;;5069277;28;20382;-64
2020/12/25 00:26:19;;;;;;;;;;;;;;;;;;5064613;28;20007;-64
2020/12/25 00:28:45;;;;;;;;;;;;;;;;;;5068535;28;19924;-64
2020/12/25 00:31:12;;;;;;;;;;;;;;;;;;5061187;28;19925;-64
2020/12/25 00:33:38;;;;;;;;;;;;;;;;;;5071503;28;20431;-66
2020/12/25 00:36:05;;;;;;;;;;;;;;;;;;5072947;28;19930;-65
2020/12/25 00:38:31;;;;;;;;;;;;;;;;;;5065452;28;19925;-66
2020/12/25 00:40:58;;;;;;;;;;;;;;;;;;5069930;28;19925;-64
2020/12/25 00:43:24;;;;;;;;;;;;;;;;;;5066840;28;20356;-63
2020/12/25 00:45:50;;;;;;;;;;;;;;;;;;5070984;28;19993;-65
2020/12/25 00:48:17;;;;;;;;;;;;;;;;;;5064524;28;20008;-65
2020/12/25 00:50:43;;;;;;;;;;;;;;;;;;5067280;28;19928;-65
2020/12/25 00:53:10;;;;;;;;;;;;;;;;;;5063851;28;19924;-64
2020/12/25 00:55:36;;;;;;;;;;;;;;;;;;5067012;28;19954;-63
2020/12/25 00:58:03;;;;;;;;;;;;;;;;;;5061255;28;19925;-64
2020/12/25 01:00:29;;;;;;;;;;;;;;;;;;5067213;28;19932;-65
2020/12/25 01:02:56;;;;;;;;;;;;;;;;;;5067875;28;19938;-66
2020/12/25 01:05:22;;;;;;;;;;;;;;;;;;5068011;28;20289;-64
2020/12/25 01:07:48;;;;;;;;;;;;;;;;;;5071515;28;19931;-65
2020/12/25 01:10:15;;;;;;;;;;;;;;;;;;5058030;28;19985;-64
2020/12/25 01:12:41;;;;;;;;;;;;;;;;;;5066993;28;19931;-67
2020/12/25 01:15:08;;;;;;;;;;;;;;;;;;5061946;28;19925;-65
2020/12/25 01:17:34;;;;;;;;;;;;;;;;;;5065164;28;19925;-64
2020/12/25 01:20:01;;;;;;;;;;;;;;;;;;5065748;28;20001;-64
2020/12/25 01:22:27;;;;;;;;;;;;;;;;;;5061792;28;20027;-64
2020/12/25 01:24:54;;;;;;;;;;;;;;;;;;5064699;28;19924;-66
2020/12/25 01:27:20;;;;;;;;;;;;;;;;;;5059959;28;19931;-64
2020/12/25 01:29:47;;;;;;;;;;;;;;;;;;5071083;28;19928;-64
2020/12/25 01:32:13;;;;;;;;;;;;;;;;;;5062229;28;20279;-64
2020/12/25 01:34:40;;;;;;;;;;;;;;;;;;5057859;28;19928;-65
2020/12/25 01:37:06;;;;;;;;;;;;;;;;;;5064570;28;19958;-65
2020/12/25 01:39:33;;;;;;;;;;;;;;;;;;5067948;28;19924;-65
2020/12/25 01:41:59;;;;;;;;;;;;;;;;;;5065939;28;19924;-65
2020/12/25 01:44:25;;;;;;;;;;;;;;;;;;5066860;28;20317;-67
2020/12/25 01:46:52;;;;;;;;;;;;;;;;;;5064425;28;20360;-64
2020/12/25 01:49:18;;;;;;;;;;;;;;;;;;5057878;28;19924;-64
2020/12/25 01:51:45;;;;;;;;;;;;;;;;;;5066836;28;20443;-65
2020/12/25 01:54:11;;;;;;;;;;;;;;;;;;5065554;28;19933;-65
2020/12/25 01:56:38;;;;;;;;;;;;;;;;;;5068504;28;19990;-64
2020/12/25 01:59:04;;;;;;;;;;;;;;;;;;5061485;28;20023;-65
2020/12/25 02:01:30;;;;;;;;;;;;;;;;;;5063187;28;19948;-64
2020/12/25 02:03:57;;;;;;;;;;;;;;;;;;5064056;28;19937;-66
2020/12/25 02:06:23;;;;;;;;;;;;;;;;;;5063379;28;20000;-65
2020/12/25 02:08:50;;;;;;;;;;;;;;;;;;5057055;28;19925;-67
2020/12/25 02:11:16;;;;;;;;;;;;;;;;;;5061309;28;19934;-64
2020/12/25 02:13:43;;;;;;;;;;;;;;;;;;5066990;28;19929;-66
2020/12/25 02:16:09;;;;;;;;;;;;;;;;;;5068734;28;19969;-65
2020/12/25 02:18:36;;;;;;;;;;;;;;;;;;5066678;28;19925;-65
2020/12/25 02:21:02;;;;;;;;;;;;;;;;;;5060104;28;19929;-65
2020/12/25 02:23:28;;;;;;;;;;;;;;;;;;5069967;28;19928;-64
2020/12/25 02:25:55;;;;;;;;;;;;;;;;;;5061430;28;19932;-65
2020/12/25 02:28:21;;;;;;;;;;;;;;;;;;5067511;28;19924;-65
2020/12/25 02:30:48;;;;;;;;;;;;;;;;;;5071692;28;19972;-65
2020/12/25 02:33:14;;;;;;;;;;;;;;;;;;5064984;28;19924;-64
2020/12/25 02:35:41;;;;;;;;;;;;;;;;;;5062280;28;19931;-65
2020/12/25 02:38:07;;;;;;;;;;;;;;;;;;5062007;28;19931;-65
2020/12/25 02:40:34;;;;;;;;;;;;;;;;;;5064876;28;19986;-64
2020/12/25 02:43:00;;;;;;;;;;;;;;;;;;5068592;28;19928;-66
2020/12/25 02:45:26;;;;;;;;;;;;;;;;;;5067740;28;19928;-65
2020/12/25 02:47:53;;;;;;;;;;;;;;;;;;5065614;28;19925;-63
2020/12/25 02:50:19;;;;;;;;;;;;;;;;;;5067166;28;19962;-65
2020/12/25 02:52:46;;;;;;;;;;;;;;;;;;5063892;28;20019;-64
2020/12/25 02:55:13;;;;;;;;;;;;;;;;;;5069044;28;20023;-65
2020/12/25 02:57:40;;;;;;;;;;;;;;;;;;5067228;28;19925;-66
2020/12/25 03:00:06;;;;;;;;;;;;;;;;;;5059650;28;20381;-65
2020/12/25 03:02:33;;;;;;;;;;;;;;;;;;5060137;28;20294;-66
2020/12/25 03:04:59;;;;;;;;;;;;;;;;;;5063508;28;20396;-65
2020/12/25 03:07:25;;;;;;;;;;;;;;;;;;5069079;28;20367;-64
2020/12/25 03:09:52;;;;;;;;;;;;;;;;;;5065796;28;20358;-65
2020/12/25 03:12:18;;;;;;;;;;;;;;;;;;5061441;28;20394;-65
2020/12/25 03:14:45;;;;;;;;;;;;;;;;;;5059945;28;20378;-64
2020/12/25 03:17:11;;;;;;;;;;;;;;;;;;5068870;28;20343;-68
2020/12/25 03:19:38;;;;;;;;;;;;;;;;;;5064056;28;19925;-65
2020/12/25 03:22:04;;;;;;;;;;;;;;;;;;5066469;28;19925;-63
2020/12/25 03:24:30;;;;;;;;;;;;;;;;;;5065841;28;19928;-65
2020/12/25 03:26:57;;;;;;;;;;;;;;;;;;5064280;28;19925;-64
2020/12/25 03:29:23;;;;;;;;;;;;;;;;;;5061565;28;20019;-65
2020/12/25 03:31:50;;;;;;;;;;;;;;;;;;5065489;28;19971;-64
2020/12/25 03:34:16;;;;;;;;;;;;;;;;;;5066741;28;19932;-65
2020/12/25 03:36:43;;;;;;;;;;;;;;;;;;5069458;28;19925;-64
2020/12/25 03:39:09;;;;;;;;;;;;;;;;;;5070760;28;19935;-63
2020/12/25 03:41:36;;;;;;;;;;;;;;;;;;5067942;28;19935;-68
2020/12/25 03:44:02;;;;;;;;;;;;;;;;;;5068456;28;19924;-65
2020/12/25 03:46:29;;;;;;;;;;;;;;;;;;5058228;28;20329;-65
2020/12/25 03:48:55;;;;;;;;;;;;;;;;;;5060458;28;19925;-64
2020/12/25 03:51:22;;;;;;;;;;;;;;;;;;5069167;28;19993;-63
2020/12/25 03:53:48;;;;;;;;;;;;;;;;;;5070993;28;19977;-64
2020/12/25 03:56:15;;;;;;;;;;;;;;;;;;5074307;28;19931;-64
2020/12/25 03:58:41;;;;;;;;;;;;;;;;;;5070202;28;19924;-65
2020/12/25 04:01:08;;;;;;;;;;;;;;;;;;5061164;28;19932;-65
2020/12/25 04:03:34;;;;;;;;;;;;;;;;;;5068761;28;19924;-66
2020/12/25 04:06:01;;;;;;;;;;;;;;;;;;5064342;28;19929;-65
2020/12/25 04:08:27;;;;;;;;;;;;;;;;;;5070937;28;20341;-64
2020/12/25 04:10:54;;;;;;;;;;;;;;;;;;5068388;28;19982;-64
2020/12/25 04:13:21;;;;;;;;;;;;;;;;;;5068712;28;20003;-64
2020/12/25 04:15:48;;;;;;;;;;;;;;;;;;5074143;28;19954;-65
2020/12/25 04:18:14;;;;;;;;;;;;;;;;;;5070015;28;20294;-64
2020/12/25 04:20:41;;;;;;;;;;;;;;;;;;5068796;28;19925;-65
2020/12/25 04:23:07;;;;;;;;;;;;;;;;;;5070958;28;20386;-65
2020/12/25 04:25:34;;;;;;;;;;;;;;;;;;5069183;28;19925;-64
2020/12/25 04:28:00;;;;;;;;;;;;;;;;;;5065723;28;19924;-65
2020/12/25 04:30:29;;;;;;;;;;;;;;;;;;5063278;28;20295;-65
2020/12/25 04:32:56;;;;;;;;;;;;;;;;;;5066393;28;19928;-65
2020/12/25 04:35:22;;;;;;;;;;;;;;;;;;5067626;28;19949;-65
2020/12/25 04:37:49;;;;;;;;;;;;;;;;;;5065442;28;19924;-64
2020/12/25 04:40:15;;;;;;;;;;;;;;;;;;5065263;28;20405;-64
2020/12/25 04:42:42;;;;;;;;;;;;;;;;;;5062136;28;19925;-65
2020/12/25 04:45:08;;;;;;;;;;;;;;;;;;5070696;28;19924;-64
2020/12/25 04:47:35;;;;;;;;;;;;;;;;;;5072097;28;19925;-64
2020/12/25 04:50:01;;;;;;;;;;;;;;;;;;5063210;28;20019;-64
2020/12/25 04:52:28;;;;;;;;;;;;;;;;;;5069202;28;19933;-65
2020/12/25 04:54:54;;;;;;;;;;;;;;;;;;5065884;28;19925;-65
2020/12/25 04:57:21;;;;;;;;;;;;;;;;;;5068067;28;20340;-64
2020/12/25 04:59:47;;;;;;;;;;;;;;;;;;5068094;28;19970;-65
2020/12/25 05:02:14;;;;;;;;;;;;;;;;;;5065146;28;19930;-67
2020/12/25 05:04:40;;;;;;;;;;;;;;;;;;5061064;28;19925;-66
2020/12/25 05:07:07;;;;;;;;;;;;;;;;;;5065966;28;19935;-67
2020/12/25 05:09:33;;;;;;;;;;;;;;;;;;5065757;28;20032;-67
2020/12/25 05:11:59;;;;;;;;;;;;;;;;;;5071572;28;19924;-67
2020/12/25 05:14:26;;;;;;;;;;;;;;;;;;5069304;28;19980;-68
2020/12/25 05:16:52;;;;;;;;;;;;;;;;;;5067650;28;19925;-66
2020/12/25 05:19:19;;;;;;;;;;;;;;;;;;5067196;28;19924;-69
2020/12/25 05:21:45;;;;;;;;;;;;;;;;;;5067371;28;20373;-66
2020/12/25 05:24:12;;;;;;;;;;;;;;;;;;5064631;28;19928;-68
2020/12/25 05:26:38;;;;;;;;;;;;;;;;;;5068388;28;19970;-67
2020/12/25 05:29:05;;;;;;;;;;;;;;;;;;5062620;28;19929;-66
2020/12/25 05:31:31;;;;;;;;;;;;;;;;;;5063983;28;20093;-66
2020/12/25 05:33:59;;;;;;;;;;;;;;;;;;5072849;28;19936;-66
2020/12/25 05:36:25;;;;;;;;;;;;;;;;;;5065615;28;19931;-65
2020/12/25 05:38:51;;;;;;;;;;;;;;;;;;5061657;28;19947;-66
2020/12/25 05:41:18;;;;;;;;;;;;;;;;;;5065623;28;19931;-66
2020/12/25 05:43:44;;;;;;;;;;;;;;;;;;5069301;28;19931;-66
2020/12/25 05:46:11;;;;;;;;;;;;;;;;;;5059692;28;19932;-67
2020/12/25 05:48:37;;;;;;;;;;;;;;;;;;5072176;28;19925;-66
2020/12/25 05:51:04;;;;;;;;;;;;;;;;;;5070281;28;19932;-66
2020/12/25 05:53:30;;;;;;;;;;;;;;;;;;5064763;28;19931;-67
2020/12/25 05:55:57;;;;;;;;;;;;;;;;;;5068027;28;19977;-68
2020/12/25 05:58:23;;;;;;;;;;;;;;;;;;5067367;28;19935;-67
2020/12/25 06:00:50;;;;;;;;;;;;;;;;;;5060933;28;19935;-66
2020/12/25 06:03:16;;;;;;;;;;;;;;;;;;5059666;28;19928;-66
2020/12/25 06:05:43;;;;;;;;;;;;;;;;;;5056914;28;19928;-66
2020/12/25 06:08:09;;;;;;;;;;;;;;;;;;5070290;28;20279;-66
2020/12/25 06:10:36;;;;;;;;;;;;;;;;;;5069680;28;19973;-67
2020/12/25 06:13:02;;;;;;;;;;;;;;;;;;5065870;28;20410;-67
2020/12/25 06:15:29;;;;;;;;;;;;;;;;;;5063041;28;19924;-66
2020/12/25 06:17:55;;;;;;;;;;;;;;;;;;5068074;28;20289;-67
2020/12/25 06:20:22;;;;;;;;;;;;;;;;;;5063787;28;19931;-66
2020/12/25 06:22:48;;;;;;;;;;;;;;;;;;5066306;28;19925;-65
2020/12/25 06:25:15;;;;;;;;;;;;;;;;;;5058675;28;20279;-66
2020/12/25 06:27:44;;;;;;;;;;;;;;;;;;5060562;28;19932;-66
2020/12/25 06:30:10;;;;;;;;;;;;;;;;;;5059076;28;19925;-67
2020/12/25 06:32:37;;;;;;;;;;;;;;;;;;5060112;28;19932;-66
2020/12/25 06:35:03;;;;;;;;;;;;;;;;;;5066094;28;20007;-67
2020/12/25 06:37:30;;;;;;;;;;;;;;;;;;5061346;28;19931;-66
2020/12/25 06:39:57;;;;;;;;;;;;;;;;;;5059395;28;19935;-65
2020/12/25 06:42:24;;;;;;;;;;;;;;;;;;5056417;28;19928;-66
2020/12/25 06:44:50;;;;;;;;;;;;;;;;;;5058991;28;20294;-66
2020/12/25 06:47:17;;;;;;;;;;;;;;;;;;5060424;28;19971;-66
2020/12/25 06:49:43;;;;;;;;;;;;;;;;;;5064474;28;19925;-66
2020/12/25 06:52:10;;;;;;;;;;;;;;;;;;5055274;28;20298;-66
2020/12/25 06:54:36;;;;;;;;;;;;;;;;;;5058705;28;19936;-67
2020/12/25 06:57:04;;;;;;;;;;;;;;;;;;5055767;28;19924;-67
2020/12/25 06:59:30;;;;;;;;;;;;;;;;;;5056807;28;20408;-67
2020/12/25 07:01:57;;;;;;;;;;;;;;;;;;5064901;28;19931;-67
2020/12/25 07:04:23;;;;;;;;;;;;;;;;;;5065404;28;19932;-67
2020/12/25 07:06:50;;;;;;;;;;;;;;;;;;5063907;28;19924;-67
2020/12/25 07:09:16;;;;;;;;;;;;;;;;;;5060412;28;19931;-66
2020/12/25 07:11:43;;;;;;;;;;;;;;;;;;5067258;28;20324;-67
2020/12/25 07:14:09;;;;;;;;;;;;;;;;;;5068945;28;19925;-66
2020/12/25 07:16:36;;;;;;;;;;;;;;;;;;5063569;28;19943;-66
2020/12/25 07:19:02;;;;;;;;;;;;;;;;;;5064047;28;19925;-67
2020/12/25 07:21:29;;;;;;;;;;;;;;;;;;5057772;28;19931;-67
2020/12/25 07:23:55;;;;;;;;;;;;;;;;;;5059878;28;19929;-67
2020/12/25 07:26:22;;;;;;;;;;;;;;;;;;5060987;28;19933;-67
2020/12/25 07:28:48;;;;;;;;;;;;;;;;;;5060269;28;19924;-67
2020/12/25 07:31:15;;;;;;;;;;;;;;;;;;5069416;28;19925;-67
2020/12/25 07:33:41;;;;;;;;;;;;;;;;;;5067641;28;19931;-67
2020/12/25 07:36:08;;;;;;;;;;;;;;;;;;5062819;28;19931;-67
2020/12/25 07:38:34;;;;;;;;;;;;;;;;;;5069673;28;20441;-67
2020/12/25 07:41:01;;;;;;;;;;;;;;;;;;5061467;28;19925;-67
2020/12/25 07:43:27;;;;;;;;;;;;;;;;;;5062714;28;19970;-67
2020/12/25 07:45:54;;;;;;;;;;;;;;;;;;5065688;28;19924;-67
2020/12/25 07:48:20;;;;;;;;;;;;;;;;;;5065387;28;19928;-66
2020/12/25 07:50:47;;;;;;;;;;;;;;;;;;5065153;28;19951;-66
2020/12/25 07:53:13;;;;;;;;;;;;;;;;;;5066257;28;19932;-67
2020/12/25 07:55:44;;;;;;;;;;;;;;;;;;5060762;28;19925;-67
2020/12/25 07:58:10;;;;;;;;;;;;;;;;;;5064690;28;20345;-66
2020/12/25 08:00:37;;;;;;;;;;;;;;;;;;5063065;28;19924;-67
2020/12/25 08:03:03;;;;;;;;;;;;;;;;;;5063927;28;20298;-67
2020/12/25 08:05:30;;;;;;;;;;;;;;;;;;5064947;28;20026;-66
2020/12/25 08:07:56;;;;;;;;;;;;;;;;;;5065693;28;19928;-67
2020/12/25 08:10:23;;;;;;;;;;;;;;;;;;5065439;28;20012;-67
2020/12/25 08:12:49;;;;;;;;;;;;;;;;;;5061523;28;19924;-67
2020/12/25 08:15:16;;;;;;;;;;;;;;;;;;5060240;28;19928;-66
2020/12/25 08:17:42;;;;;;;;;;;;;;;;;;5061519;28;19925;-67
2020/12/25 08:20:09;;;;;;;;;;;;;;;;;;5070243;28;20366;-67
2020/12/25 08:22:35;;;;;;;;;;;;;;;;;;5066405;28;19932;-66
2020/12/25 08:25:02;;;;;;;;;;;;;;;;;;5065816;28;19924;-66
2020/12/25 08:27:32;;;;;;;;;;;;;;;;;;5064020;28;19931;-66
2020/12/25 08:29:59;;;;;;;;;;;;;;;;;;5061150;28;19940;-67
2020/12/25 08:32:25;;;;;;;;;;;;;;;;;;5065875;28;20013;-66
2020/12/25 08:34:52;;;;;;;;;;;;;;;;;;5057523;28;19925;-67
2020/12/25 08:37:18;;;;;;;;;;;;;;;;;;5072040;28;19954;-66
2020/12/25 08:39:44;;;;;;;;;;;;;;;;;;5073644;28;19970;-67
2020/12/25 08:42:11;;;;;;;;;;;;;;;;;;5062453;28;19931;-66
2020/12/25 08:44:38;;;;;;;;;;;;;;;;;;5069291;28;19924;-67
2020/12/25 08:47:05;;;;;;;;;;;;;;;;;;5066944;28;19924;-67
2020/12/25 08:49:31;;;;;;;;;;;;;;;;;;5067351;28;19924;-67
2020/12/25 08:51:58;;;;;;;;;;;;;;;;;;5066692;28;19968;-67
2020/12/25 08:54:24;;;;;;;;;;;;;;;;;;5069149;28;19924;-67
2020/12/25 08:56:51;;;;;;;;;;;;;;;;;;5059358;28;19924;-66
2020/12/25 08:59:20;;;;;;;;;;;;;;;;;;5072554;28;19939;-66
2020/12/25 09:01:47;;;;;;;;;;;;;;;;;;5059012;28;20128;-66
2020/12/25 09:04:13;;;;;;;;;;;;;;;;;;5068415;28;19928;-66
2020/12/25 09:06:40;;;;;;;;;;;;;;;;;;5066896;28;19925;-66
2020/12/25 09:09:06;;;;;;;;;;;;;;;;;;5068443;28;20003;-65
2020/12/25 09:11:33;;;;;;;;;;;;;;;;;;5059779;28;19969;-64
2020/12/25 09:13:59;;;;;;;;;;;;;;;;;;5063173;28;19940;-66
2020/12/25 09:16:26;;;;;;;;;;;;;;;;;;5065575;28;20070;-67
2020/12/25 09:18:52;;;;;;;;;;;;;;;;;;5056196;28;19931;-67
2020/12/25 09:21:19;;;;;;;;;;;;;;;;;;5064467;28;19925;-66
2020/12/25 09:23:45;;;;;;;;;;;;;;;;;;5063491;28;20392;-66
2020/12/25 09:26:12;;;;;;;;;;;;;;;;;;5062529;28;19931;-66
2020/12/25 09:28:38;;;;;;;;;;;;;;;;;;5059970;28;19983;-66
2020/12/25 09:31:05;;;;;;;;;;;;;;;;;;5061188;28;19939;-67
2020/12/25 09:33:31;;;;;;;;;;;;;;;;;;5061757;28;19951;-68
2020/12/25 09:35:58;;;;;;;;;;;;;;;;;;5067801;28;19931;-63
2020/12/25 09:38:24;;;;;;;;;;;;;;;;;;5067226;28;19924;-66
2020/12/25 09:40:51;;;;;;;;;;;;;;;;;;5064250;28;19925;-67
2020/12/25 09:43:17;;;;;;;;;;;;;;;;;;5057985;28;19928;-66
2020/12/25 09:45:43;;;;;;;;;;;;;;;;;;5063134;28;19928;-66
2020/12/25 09:48:10;;;;;;;;;;;;;;;;;;5067024;28;19939;-66
2020/12/25 09:50:36;;;;;;;;;;;;;;;;;;5072245;28;19925;-66
2020/12/25 09:53:03;;;;;;;;;;;;;;;;;;5065982;28;19928;-67
2020/12/25 09:55:35;;;;;;;;;;;;;;;;;;5062819;28;19931;-66
2020/12/25 09:58:01;;;;;;;;;;;;;;;;;;5060150;28;19932;-67
2020/12/25 10:00:28;;;;;;;;;;;;;;;;;;5061064;28;19925;-67
2020/12/25 10:02:54;;;;;;;;;;;;;;;;;;5063612;28;19934;-65
2020/12/25 10:05:21;;;;;;;;;;;;;;;;;;5063171;28;19925;-66
2020/12/25 10:07:48;;;;;;;;;;;;;;;;;;5062467;28;19925;-67
2020/12/25 10:10:14;;;;;;;;;;;;;;;;;;5062982;28;19932;-67
2020/12/25 10:12:41;;;;;;;;;;;;;;;;;;5066185;28;20020;-68
2020/12/25 10:15:07;;;;;;;;;;;;;;;;;;5057056;28;19940;-67
2020/12/25 10:17:34;;;;;;;;;;;;;;;;;;5061524;28;19977;-66
2020/12/25 10:20:00;;;;;;;;;;;;;;;;;;5058665;28;19929;-65
2020/12/25 10:22:27;;;;;;;;;;;;;;;;;;5064635;28;19924;-66
2020/12/25 10:24:53;;;;;;;;;;;;;;;;;;5059536;28;19951;-64
2020/12/25 10:27:20;;;;;;;;;;;;;;;;;;5063163;28;19924;-65
2020/12/25 10:29:46;;;;;;;;;;;;;;;;;;5061002;28;20002;-66
2020/12/25 10:32:13;;;;;;;;;;;;;;;;;;5062136;28;19947;-66
2020/12/25 10:34:39;;;;;;;;;;;;;;;;;;5064858;28;19924;-65
2020/12/25 10:37:06;;;;;;;;;;;;;;;;;;5057472;28;19935;-65
2020/12/25 10:39:32;;;;;;;;;;;;;;;;;;5059930;28;20402;-63
2020/12/25 10:41:59;;;;;;;;;;;;;;;;;;5057972;28;20531;-65
2020/12/25 10:44:25;;;;;;;;;;;;;;;;;;5057901;28;19958;-66
2020/12/25 10:46:52;;;;;;;;;;;;;;;;;;5058114;28;20435;-65
2020/12/25 10:49:18;;;;;;;;;;;;;;;;;;5058840;28;19924;-65
2020/12/25 10:51:45;;;;;;;;;;;;;;;;;;5058390;28;19937;-65
2020/12/25 10:54:12;;;;;;;;;;;;;;;;;;5057548;28;20390;-66
2020/12/25 10:56:40;;;;;;;;;;;;;;;;;;5056746;28;20202;-66
2020/12/25 10:59:06;;;;;;;;;;;;;;;;;;5058384;28;19932;-66
2020/12/25 11:01:33;;;;;;;;;;;;;;;;;;5079297;22;19939;-58
2020/12/25 11:03:59;;;;;;;;;;;;;;;;;;5043121;28;19983;-55
2020/12/25 11:06:26;;;;;;;;;;;;;;;;;;5039644;28;20408;-57
2020/12/25 11:08:52;;;;;;;;;;;;;;;;;;5040791;28;19936;-53
2020/12/25 11:11:19;;;;;;;;;;;;;;;;;;5044881;28;19933;-59
2020/12/25 11:13:45;;;;;;;;;;;;;;;;;;5024160;28;19955;-59
2020/12/25 11:16:12;;;;;;;;;;;;;;;;;;5023338;28;19952;-57
2020/12/25 11:18:38;;;;;;;;;;;;;;;;;;5023323;28;19933;-57
2020/12/25 11:21:05;;;;;;;;;;;;;;;;;;5028012;28;19952;-55
2020/12/25 11:23:31;;;;;;;;;;;;;;;;;;5026215;28;20398;-58
2020/12/25 11:25:58;;;;;;;;;;;;;;;;;;5029911;28;19931;-53
2020/12/25 11:28:24;;;;;;;;;;;;;;;;;;5023407;28;19933;-59
2020/12/25 11:30:51;;;;;;;;;;;;;;;;;;5019740;28;19939;-58
2020/12/25 11:33:21;;;;;;;;;;;;;;;;;;5020514;28;19983;-58
2020/12/25 11:35:48;;;;;;;;;;;;;;;;;;5019491;28;19933;-56
2020/12/25 11:38:14;;;;;;;;;;;;;;;;;;5020097;28;19933;-57
2020/12/25 11:40:41;;;;;;;;;;;;;;;;;;5023748;28;19938;-60
2020/12/25 11:43:07;;;;;;;;;;;;;;;;;;5026252;28;19972;-64
2020/12/25 11:45:33;;;;;;;;;;;;;;;;;;5028044;28;19925;-62
2020/12/25 11:48:00;;;;;;;;;;;;;;;;;;5020766;28;19979;-58
2020/12/25 11:50:26;;;;;;;;;;;;;;;;;;5019468;28;19925;-62
2020/12/25 11:52:53;;;;;;;;;;;;;;;;;;5025200;28;19970;-60
2020/12/25 11:55:19;;;;;;;;;;;;;;;;;;5021954;28;19940;-56
2020/12/25 11:57:46;;;;;;;;;;;;;;;;;;5021161;28;19925;-61
2020/12/25 12:00:12;;;;;;;;;;;;;;;;;;5018589;28;19947;-61
2020/12/25 12:02:39;;;;;;;;;;;;;;;;;;5020761;28;19925;-61
2020/12/25 12:05:05;;;;;;;;;;;;;;;;;;5024269;28;20050;-58
2020/12/25 12:07:35;;;;;;;;;;;;;;;;;;5024945;28;20349;-62
2020/12/25 12:10:01;;;;;;;;;;;;;;;;;;5023439;28;19987;-62
2020/12/25 12:12:30;;;;;;;;;;;;;;;;;;5030346;28;19929;-63
2020/12/25 12:14:59;;;;;;;;;;;;;;;;;;5030048;28;20345;-63
2020/12/25 12:17:26;;;;;;;;;;;;;;;;;;5030845;28;20028;-60
2020/12/25 12:19:52;;;;;;;;;;;;;;;;;;5025627;28;19925;-65
2020/12/25 12:22:19;;;;;;;;;;;;;;;;;;5028082;28;19948;-62
2020/12/25 12:24:45;;;;;;;;;;;;;;;;;;5028323;28;19976;-64
2020/12/25 12:27:12;;;;;;;;;;;;;;;;;;5023244;28;19925;-62
2020/12/25 12:29:38;;;;;;;;;;;;;;;;;;5027426;28;20031;-61
2020/12/25 12:32:05;;;;;;;;;;;;;;;;;;5022928;28;19935;-64
2020/12/25 12:34:31;;;;;;;;;;;;;;;;;;5024658;28;19951;-62
2020/12/25 12:36:58;;;;;;;;;;;;;;;;;;5031461;28;19925;-61
2020/12/25 12:39:24;;;;;;;;;;;;;;;;;;5029034;28;19926;-61
2020/12/25 12:41:51;;;;;;;;;;;;;;;;;;5030254;28;20097;-63
2020/12/25 12:44:17;;;;;;;;;;;;;;;;;;5032871;28;20666;-60
2020/12/25 12:46:44;;;;;;;;;;;;;;;;;;5029896;28;19935;-62
2020/12/25 12:49:10;;;;;;;;;;;;;;;;;;5028106;28;20306;-61
2020/12/25 12:51:36;;;;;;;;;;;;;;;;;;5028962;28;19925;-57
2020/12/25 12:54:03;;;;;;;;;;;;;;;;;;5027853;28;20024;-61
2020/12/25 12:56:30;;;;;;;;;;;;;;;;;;5026997;28;19960;-63
2020/12/25 12:58:56;;;;;;;;;;;;;;;;;;5026154;28;19925;-65
2020/12/25 13:01:23;;;;;;;;;;;;;;;;;;5027348;28;19929;-64
2020/12/25 13:03:49;;;;;;;;;;;;;;;;;;5029505;28;20297;-64
2020/12/25 13:06:16;;;;;;;;;;;;;;;;;;5026200;28;20024;-65
2020/12/25 13:08:42;;;;;;;;;;;;;;;;;;5025564;28;20432;-64
2020/12/25 13:11:09;;;;;;;;;;;;;;;;;;5030294;28;20174;-64
2020/12/25 13:13:35;;;;;;;;;;;;;;;;;;5031914;28;19929;-65
2020/12/25 13:16:02;;;;;;;;;;;;;;;;;;5032054;28;19925;-64
2020/12/25 13:18:28;;;;;;;;;;;;;;;;;;5030221;28;19933;-63
2020/12/25 13:20:55;;;;;;;;;;;;;;;;;;5031264;28;19929;-64
2020/12/25 13:23:21;;;;;;;;;;;;;;;;;;5029418;28;19979;-64
2020/12/25 13:25:48;;;;;;;;;;;;;;;;;;5027549;28;20019;-61
2020/12/25 13:28:14;;;;;;;;;;;;;;;;;;5026297;28;19933;-64
2020/12/25 13:30:41;;;;;;;;;;;;;;;;;;5027685;28;19936;-65
2020/12/25 13:33:07;;;;;;;;;;;;;;;;;;5022379;28;19925;-65
2020/12/25 13:35:34;;;;;;;;;;;;;;;;;;5029822;28;19925;-65
2020/12/25 13:38:00;;;;;;;;;;;;;;;;;;5031045;28;20399;-65
2020/12/25 13:40:27;;;;;;;;;;;;;;;;;;5029370;28;19932;-64
2020/12/25 13:42:53;;;;;;;;;;;;;;;;;;5029701;28;19978;-65
2020/12/25 13:45:20;;;;;;;;;;;;;;;;;;5024575;28;19935;-64
2020/12/25 13:47:46;;;;;;;;;;;;;;;;;;5027174;28;19925;-65
2020/12/25 13:50:12;;;;;;;;;;;;;;;;;;5029985;28;19925;-65
2020/12/25 13:52:39;;;;;;;;;;;;;;;;;;5027637;28;20498;-65
2020/12/25 13:55:05;;;;;;;;;;;;;;;;;;5022424;28;20452;-63
2020/12/25 13:57:32;;;;;;;;;;;;;;;;;;5023988;28;20055;-64
2020/12/25 13:59:58;;;;;;;;;;;;;;;;;;5028672;28;20455;-64
2020/12/25 14:02:25;;;;;;;;;;;;;;;;;;5023566;28;19933;-64
2020/12/25 14:04:51;;;;;;;;;;;;;;;;;;5027118;28;19936;-64
2020/12/25 14:07:18;;;;;;;;;;;;;;;;;;5025769;28;19971;-64
2020/12/25 14:09:44;;;;;;;;;;;;;;;;;;5027783;28;20454;-64
2020/12/25 14:12:11;;;;;;;;;;;;;;;;;;5021325;28;20024;-64
2020/12/25 14:14:37;;;;;;;;;;;;;;;;;;5029635;28;19949;-64
2020/12/25 14:17:04;;;;;;;;;;;;;;;;;;5020019;28;20073;-62
2020/12/25 14:19:30;;;;;;;;;;;;;;;;;;5028575;28;19925;-64
2020/12/25 14:21:57;;;;;;;;;;;;;;;;;;5026097;28;20374;-64
2020/12/25 14:24:23;;;;;;;;;;;;;;;;;;5025070;28;19939;-63
2020/12/25 14:26:50;;;;;;;;;;;;;;;;;;5024822;28;19937;-64
2020/12/25 14:29:16;;;;;;;;;;;;;;;;;;5029852;28;19999;-63
2020/12/25 14:31:43;;;;;;;;;;;;;;;;;;5025905;28;19937;-63
2020/12/25 14:34:09;;;;;;;;;;;;;;;;;;5025014;28;19948;-64
2020/12/25 14:36:36;;;;;;;;;;;;;;;;;;5027445;28;20310;-64
2020/12/25 14:39:02;;;;;;;;;;;;;;;;;;5027093;28;20399;-61
2020/12/25 14:41:28;;;;;;;;;;;;;;;;;;5029064;28;20400;-63
2020/12/25 14:43:55;;;;;;;;;;;;;;;;;;5022697;28;19983;-62
2020/12/25 14:46:21;;;;;;;;;;;;;;;;;;5028435;28;19940;-63
2020/12/25 14:48:48;;;;;;;;;;;;;;;;;;5019321;28;19932;-63
2020/12/25 14:51:14;;;;;;;;;;;;;;;;;;5026737;28;19996;-63
2020/12/25 14:53:41;;;;;;;;;;;;;;;;;;5020851;28;19929;-64
2020/12/25 14:56:07;;;;;;;;;;;;;;;;;;5023077;28;19940;-62
2020/12/25 14:58:33;;;;;;;;;;;;;;;;;;5022744;28;19941;-64
2020/12/25 15:01:00;;;;;;;;;;;;;;;;;;5028341;28;19931;-57
2020/12/25 15:03:26;;;;;;;;;;;;;;;;;;5019956;28;19926;-62
2020/12/25 15:05:53;;;;;;;;;;;;;;;;;;5022342;28;20413;-62
2020/12/25 15:08:19;;;;;;;;;;;;;;;;;;5025353;28;19925;-61
2020/12/25 15:10:46;;;;;;;;;;;;;;;;;;5025914;28;19929;-63
2020/12/25 15:13:12;;;;;;;;;;;;;;;;;;5019421;28;19925;-62
2020/12/25 15:15:39;;;;;;;;;;;;;;;;;;5026592;28;19925;-63
2020/12/25 15:18:05;;;;;;;;;;;;;;;;;;5025269;28;19929;-63
2020/12/25 15:20:32;;;;;;;;;;;;;;;;;;5029850;28;20414;-62
2020/12/25 15:22:58;;;;;;;;;;;;;;;;;;5024038;28;19933;-63
2020/12/25 15:25:25;;;;;;;;;;;;;;;;;;5024262;28;19933;-63
2020/12/25 15:27:51;;;;;;;;;;;;;;;;;;5024942;28;20007;-63
2020/12/25 15:30:18;;;;;;;;;;;;;;;;;;5028132;28;20322;-62
2020/12/25 15:32:44;;;;;;;;;;;;;;;;;;5029236;28;20019;-65
2020/12/25 15:35:11;;;;;;;;;;;;;;;;;;5026650;28;19933;-63
2020/12/25 15:37:37;;;;;;;;;;;;;;;;;;5023792;28;19929;-66
2020/12/25 15:40:04;;;;;;;;;;;;;;;;;;5024923;28;19928;-62
2020/12/25 15:42:30;;;;;;;;;;;;;;;;;;5024784;28;19935;-61
2020/12/25 15:44:59;;;;;;;;;;;;;;;;;;5033747;28;19925;-63
2020/12/25 15:47:26;;;;;;;;;;;;;;;;;;5034092;28;19948;-62
2020/12/25 15:49:52;;;;;;;;;;;;;;;;;;5031910;28;19933;-61
2020/12/25 15:52:20;;;;;;;;;;;;;;;;;;5031623;28;19925;-63
2020/12/25 15:54:46;;;;;;;;;;;;;;;;;;5034416;28;20039;-63
2020/12/25 15:57:12;;;;;;;;;;;;;;;;;;5031147;28;19933;-61
2020/12/25 15:59:40;;;;;;;;;;;;;;;;;;5034981;28;19931;-61
2020/12/25 16:02:07;;;;;;;;;;;;;;;;;;5035258;28;19924;-62
2020/12/25 16:04:33;;;;;;;;;;;;;;;;;;5030987;28;20002;-62
2020/12/25 16:06:59;;;;;;;;;;;;;;;;;;5034455;28;20062;-63
2020/12/25 16:09:26;;;;;;;;;;;;;;;;;;5032005;28;19925;-63
2020/12/25 16:11:52;;;;;;;;;;;;;;;;;;5031066;28;20054;-63
2020/12/25 16:14:19;;;;;;;;;;;;;;;;;;5024940;28;19925;-64
2020/12/25 16:16:45;;;;;;;;;;;;;;;;;;5032567;28;19925;-60
2020/12/25 16:19:12;;;;;;;;;;;;;;;;;;5033926;28;19925;-61
2020/12/25 16:21:38;;;;;;;;;;;;;;;;;;5035995;28;19925;-62
2020/12/25 16:24:05;;;;;;;;;;;;;;;;;;5034840;28;19929;-58
2020/12/25 16:26:31;;;;;;;;;;;;;;;;;;5032338;28;20025;-62
2020/12/25 16:28:59;;;;;;;;;;;;;;;;;;5028375;28;20015;-62
2020/12/25 16:31:26;;;;;;;;;;;;;;;;;;5026553;28;19975;-61
2020/12/25 16:33:52;;;;;;;;;;;;;;;;;;5032513;28;19931;-59
2020/12/25 16:36:19;;;;;;;;;;;;;;;;;;5033683;28;19933;-54
2020/12/25 16:38:45;;;;;;;;;;;;;;;;;;5033456;28;19931;-57
2020/12/25 16:41:12;;;;;;;;;;;;;;;;;;5029290;28;20386;-60